Time;durP1;ratioP1;P1;durP2;ratioP2;P2;SDS_P1;SDS_P2;PMS_P1;PMS_P2;Temp;Humidity;BMP_temperature;BMP_pressure;BME280_temperature;BME280_humidity;BME280_pressure;Samples;Min_cycle;Max_cycle;Signal;HPM_P1;HPM_P2
2023/08/14 00:01:52;;;;;;;0.00;0.00;;;;;;;21.72;nan;100341.03;4972310;28;20047;-85
2023/08/14 00:04:18;;;;;;;0.10;0.10;;;;;;;;;;4956372;28;20039;-85
2023/08/14 00:06:43;;;;;;;0.10;0.10;;;;;;;21.72;nan;100319.50;4967224;28;20125;-85
2023/08/14 00:09:09;;;;;;;0.10;0.10;;;;;;;21.69;nan;100348.72;4978135;28;20035;-85
2023/08/14 00:11:35;;;;;;;0.10;0.10;;;;;;;21.62;nan;100327.31;4977628;28;20045;-85
2023/08/14 00:14:03;;;;;;;0.10;0.10;;;;;;;;;;4977531;28;20031;-85
2023/08/14 00:16:29;;;;;;;0.10;0.10;;;;;;;;;;4975194;28;20038;-85
2023/08/14 00:18:54;;;;;;;0.10;0.10;;;;;;;;;;4976061;28;20524;-86
2023/08/14 00:21:20;;;;;;;0.10;0.10;;;;;;;;;;4971333;28;20051;-86
2023/08/14 00:23:46;;;;;;;0.10;0.10;;;;;;;;;;4975825;28;20405;-86
2023/08/14 00:26:15;;;;;;;0.10;0.10;;;;;;;21.54;nan;100324.94;4978861;28;20087;-85
2023/08/14 00:28:41;;;;;;;0.05;0.05;;;;;;;21.54;nan;100335.69;4978495;28;20423;-85
2023/08/14 00:31:06;;;;;;;0.00;0.00;;;;;;;;;;4973911;28;20114;-85
2023/08/14 00:33:32;;;;;;;0.10;0.10;;;;;;;;;;4967715;28;20063;-85
2023/08/14 00:35:58;;;;;;;0.10;0.10;;;;;;;21.58;nan;100310.78;4977818;28;20102;-86
2023/08/14 00:38:24;;;;;;;0.00;0.00;;;;;;;21.61;nan;100325.66;4974533;28;20035;-86
2023/08/14 00:40:51;;;;;;;0.10;0.10;;;;;;;;;;4975821;28;20045;-86
2023/08/14 00:43:17;;;;;;;0.00;0.00;;;;;;;21.61;nan;100320.28;4965960;28;20039;-86
2023/08/14 00:45:42;;;;;;;0.00;0.00;;;;;;;21.61;nan;100323.78;4975890;28;20035;-86
2023/08/14 00:48:08;;;;;;;0.00;0.00;;;;;;;;;;4965758;28;20046;-86
2023/08/14 00:50:33;;;;;;;0.03;0.03;;;;;;;;;;4972880;28;20061;-86
2023/08/14 00:53:00;;;;;;;0.10;0.10;;;;;;;;;;4976400;28;20066;-86
2023/08/14 00:55:26;;;;;;;0.10;0.10;;;;;;;;;;4977826;28;20031;-86
2023/08/14 00:57:55;;;;;;;0.00;0.00;;;;;;;21.70;nan;100318.09;4975540;28;20624;-85
2023/08/14 01:00:21;;;;;;;0.10;0.10;;;;;;;;;;4975047;28;20085;-86
2023/08/14 01:02:50;;;;;;;0.10;0.10;;;;;;;;;;4976636;28;20039;-86
2023/08/14 01:05:15;;;;;;;0.00;0.00;;;;;;;;;;4977332;28;20050;-86
2023/08/14 01:07:41;;;;;;;0.05;0.05;;;;;;;;;;4975332;28;20038;-86
2023/08/14 01:10:11;;;;;;;0.10;0.10;;;;;;;21.82;nan;100294.69;4975708;28;20039;-87
2023/08/14 01:12:52;;;;;;;0.00;0.00;;;;;;;21.83;nan;100324.09;4979587;28;20121;-87
2023/08/14 01:15:55;;;;;;;0.10;0.10;;;;;;;21.83;nan;100313.31;4979959;28;20504;-86
2023/08/14 01:18:26;;;;;;;0.10;0.10;;;;;;;21.74;nan;100325.47;4938938;28;20510;-87
2023/08/14 01:21:11;;;;;;;0.00;0.00;;;;;;;21.75;nan;100326.28;4977230;28;20403;-85
2023/08/14 01:23:52;;;;;;;0.03;0.03;;;;;;;21.70;nan;100323.47;4978766;28;20039;-85
2023/08/14 01:26:18;;;;;;;0.10;0.10;;;;;;;21.65;nan;100305.31;4976738;28;20065;-86
2023/08/14 01:28:44;;;;;;;0.10;0.10;;;;;;;;;;4978575;28;20058;-86
2023/08/14 01:31:10;;;;;;;0.10;0.10;;;;;;;;;;4981074;28;20041;-86
2023/08/14 01:33:35;;;;;;;0.10;0.10;;;;;;;;;;4981569;28;20525;-86
2023/08/14 01:36:12;;;;;;;0.00;0.00;;;;;;;;;;4981758;28;20039;-87
2023/08/14 01:39:00;;;;;;;0.00;0.00;;;;;;;21.31;nan;100293.34;4982902;28;20107;-86
2023/08/14 01:41:33;;;;;;;0.10;0.10;;;;;;;21.27;nan;100281.41;4983615;28;20063;-86
2023/08/14 01:43:59;;;;;;;0.00;0.00;;;;;;;;;;4982221;28;20090;-87
2023/08/14 01:46:26;;;;;;;0.00;0.00;;;;;;;21.21;nan;100315.41;4978706;28;20034;-87
2023/08/14 01:48:55;;;;;;;0.00;0.00;;;;;;;;;;4975936;28;20112;-86
2023/08/14 01:51:21;;;;;;;0.00;0.00;;;;;;;;;;4982094;28;20099;-87
2023/08/14 01:53:49;;;;;;;0.10;0.10;;;;;;;21.22;nan;100311.69;4979730;28;20089;-86
2023/08/14 01:56:17;;;;;;;0.00;0.00;;;;;;;21.18;nan;100310.50;4979396;28;20054;-85
2023/08/14 01:58:43;;;;;;;0.10;0.10;;;;;;;;;;4979370;28;20102;-86
2023/08/14 02:01:08;;;;;;;0.10;0.10;;;;;;;21.04;nan;100279.44;4980968;28;20067;-86
2023/08/14 02:03:36;;;;;;;0.10;0.10;;;;;;;;;;4981441;28;20034;-85
2023/08/14 02:06:02;;;;;;;0.10;0.10;;;;;;;21.03;nan;100285.88;4982507;28;20035;-86
2023/08/14 02:08:28;;;;;;;0.10;0.10;;;;;;;;;;4981156;28;20042;-85
2023/08/14 02:10:53;;;;;;;0.10;0.10;;;;;;;;;;4980040;28;20047;-86
2023/08/14 02:13:18;;;;;;;0.00;0.00;;;;;;;21.01;nan;100299.53;4981075;28;20123;-86
2023/08/14 02:15:45;;;;;;;0.10;0.10;;;;;;;21.05;nan;100289.97;4981707;28;20042;-85
2023/08/14 02:18:12;;;;;;;0.10;0.10;;;;;;;21.09;nan;100301.91;4978748;28;20401;-87
2023/08/14 02:20:48;;;;;;;0.10;0.10;;;;;;;21.05;nan;100294.53;4981339;28;20057;-85
2023/08/14 02:23:14;;;;;;;0.10;0.10;;;;;;;21.01;nan;100278.03;4981800;28;20118;-86
2023/08/14 02:25:41;;;;;;;0.10;0.10;;;;;;;21.00;nan;100292.53;4979600;28;20066;-86
2023/08/14 02:28:08;;;;;;;0.10;0.10;;;;;;;20.97;nan;100261.56;4980869;28;20043;-86
2023/08/14 02:30:38;;;;;;;0.10;0.10;;;;;;;20.93;nan;100287.22;4981572;28;20459;-85
2023/08/14 02:33:04;;;;;;;0.10;0.10;;;;;;;20.90;nan;100372.84;4970965;28;20046;-86
2023/08/14 02:35:30;;;;;;;0.10;0.10;;;;;;;20.88;nan;100268.28;4983017;28;20382;-85
2023/08/14 02:37:55;;;;;;;0.10;0.10;;;;;;;;;;4981488;28;20038;-86
2023/08/14 02:40:21;;;;;;;0.10;0.10;;;;;;;;;;4980723;28;20262;-86
2023/08/14 02:42:46;;;;;;;0.10;0.10;;;;;;;;;;4980637;28;20065;-87
2023/08/14 02:45:15;;;;;;;0.10;0.10;;;;;;;20.85;nan;100257.97;4980183;28;20053;-87
2023/08/14 02:47:41;;;;;;;0.10;0.10;;;;;;;20.74;nan;100250.69;4979607;28;20039;-86
2023/08/14 02:50:07;;;;;;;0.00;0.00;;;;;;;20.64;nan;100256.59;4979525;28;20050;-87
2023/08/14 02:52:32;;;;;;;0.10;0.10;;;;;;;20.55;nan;100257.91;4980436;28;20027;-86
2023/08/14 02:54:57;;;;;;;0.10;0.10;;;;;;;;;;4980763;28;20174;-87
2023/08/14 02:57:26;;;;;;;0.10;0.10;;;;;;;20.46;nan;100227.81;4979860;28;20031;-86
2023/08/14 02:59:51;;;;;;;0.10;0.10;;;;;;;20.45;nan;100236.94;4980000;28;20102;-87
2023/08/14 03:02:17;;;;;;;0.10;0.10;;;;;;;;;;4981076;28;20066;-86
2023/08/14 03:04:42;;;;;;;0.10;0.10;;;;;;;20.36;nan;100228.34;4980435;28;20070;-87
2023/08/14 03:07:08;;;;;;;0.10;0.10;;;;;;;;;;4980279;28;20093;-86
2023/08/14 03:09:33;;;;;;;0.10;0.10;;;;;;;20.31;nan;100246.19;4979121;28;20045;-87
2023/08/14 03:11:58;;;;;;;0.10;0.10;;;;;;;;;;4980536;28;20460;-87
2023/08/14 03:14:24;;;;;;;0.10;0.10;;;;;;;;;;4978527;28;20081;-86
2023/08/14 03:16:49;;;;;;;0.10;0.10;;;;;;;;;;4979088;28;20378;-87
2023/08/14 03:19:15;;;;;;;0.10;0.10;;;;;;;20.07;nan;100202.22;4981591;28;20035;-87
2023/08/14 03:21:41;;;;;;;0.10;0.10;;;;;;;20.00;nan;100234.50;4980642;28;20039;-86
2023/08/14 03:24:06;;;;;;;0.08;0.08;;;;;;;19.94;nan;100203.97;4979725;28;20043;-88
2023/08/14 03:26:32;;;;;;;0.10;0.10;;;;;;;19.90;nan;100229.63;4980879;28;20058;-86
2023/08/14 03:28:58;;;;;;;0.10;0.10;;;;;;;;;;4980492;28;20035;-87
2023/08/14 03:31:23;;;;;;;0.10;0.10;;;;;;;19.84;nan;100214.41;4977145;28;20059;-86
2023/08/14 03:33:49;;;;;;;0.10;0.10;;;;;;;;;;4977858;28;20078;-86
2023/08/14 03:36:14;;;;;;;0.10;0.10;;;;;;;;;;4978402;28;20050;-88
2023/08/14 03:38:39;;;;;;;0.10;0.10;;;;;;;;;;4979143;28;20045;-86
2023/08/14 03:41:05;;;;;;;0.10;0.10;;;;;;;19.80;nan;100229.28;4979882;28;20050;-87
2023/08/14 03:43:31;;;;;;;0.10;0.10;;;;;;;19.76;nan;100221.91;4978694;28;20059;-86
2023/08/14 03:45:56;;;;;;;0.10;0.10;;;;;;;19.75;nan;100209.53;4979598;28;20034;-87
2023/08/14 03:48:22;;;;;;;0.10;0.10;;;;;;;19.72;nan;100190.16;4976282;28;20130;-86
2023/08/14 03:50:49;;;;;;;0.10;0.10;;;;;;;19.68;nan;100183.59;4979145;28;20089;-86
2023/08/14 03:53:15;;;;;;;0.10;0.10;;;;;;;;;;4981551;28;20034;-86
2023/08/14 03:55:40;;;;;;;0.10;0.10;;;;;;;19.59;nan;100217.06;4979083;28;20067;-86
2023/08/14 03:58:08;;;;;;;0.10;0.10;;;;;;;;;;4981099;28;20035;-86
2023/08/14 04:00:35;;;;;;;0.10;0.10;;;;;;;19.58;nan;100210.06;4981187;28;20050;-87
2023/08/14 04:03:00;;;;;;;0.10;0.10;;;;;;;19.58;nan;100210.06;4980664;28;20031;-86
2023/08/14 04:05:26;;;;;;;0.10;0.10;;;;;;;19.59;nan;100206.31;4978456;28;20122;-86
2023/08/14 04:07:51;;;;;;;0.10;0.10;;;;;;;19.62;nan;100199.72;4978075;28;20038;-86
2023/08/14 04:10:16;;;;;;;0.10;0.10;;;;;;;;;;4977343;28;20081;-86
2023/08/14 04:12:42;;;;;;;0.10;0.10;;;;;;;19.66;nan;100196.38;4978370;28;20049;-86
2023/08/14 04:15:15;;;;;;;0.10;0.10;;;;;;;19.70;nan;100219.06;4979215;28;20121;-87
2023/08/14 04:17:43;;;;;;;0.10;0.10;;;;;;;19.76;nan;100216.53;4977754;28;20065;-86
2023/08/14 04:20:09;;;;;;;0.10;0.10;;;;;;;19.80;nan;100207.84;4977713;28;20038;-87
2023/08/14 04:22:35;;;;;;;0.10;0.10;;;;;;;19.82;nan;100215.66;4978439;28;20039;-85
2023/08/14 04:25:01;;;;;;;0.10;0.10;;;;;;;19.84;nan;100262.72;4977179;28;20042;-86
2023/08/14 04:27:26;;;;;;;0.10;0.10;;;;;;;19.90;nan;100239.53;4976629;28;20027;-87
2023/08/14 04:29:51;;;;;;;0.10;0.10;;;;;;;19.98;nan;100243.81;4975903;28;20105;-85
2023/08/14 04:32:17;;;;;;;0.10;0.10;;;;;;;20.03;nan;100244.78;4972383;28;20034;-86
2023/08/14 04:34:43;;;;;;;0.10;0.10;;;;;;;;;;4976469;28;20043;-86
2023/08/14 04:37:11;;;;;;;0.10;0.10;;;;;;;;;;4975011;28;20130;-86
2023/08/14 04:39:36;;;;;;;0.10;0.10;;;;;;;20.07;nan;100331.91;4975364;28;20031;-86
2023/08/14 04:42:02;;;;;;;0.10;0.10;;;;;;;;;;4975653;28;20548;-86
2023/08/14 04:44:27;;;;;;;0.10;0.10;;;;;;;;;;4974639;28;20038;-86
2023/08/14 04:46:52;;;;;;;0.00;0.00;;;;;;;;;;4975349;28;20512;-86
2023/08/14 04:49:17;;;;;;;0.10;0.10;;;;;;;;;;4973828;28;20285;-86
2023/08/14 04:51:46;;;;;;;0.10;0.10;;;;;;;20.09;nan;100256.50;4976251;28;20341;-86
2023/08/14 04:54:11;;;;;;;0.10;0.10;;;;;;;;;;4966173;28;20291;-87
2023/08/14 04:56:36;;;;;;;0.10;0.10;;;;;;;;;;4974546;28;20035;-86
2023/08/14 04:59:06;;;;;;;0.10;0.10;;;;;;;;;;4975064;28;20111;-86
2023/08/14 05:01:32;;;;;;;0.10;0.10;;;;;;;;;;4975110;28;20278;-86
2023/08/14 05:03:58;;;;;;;0.10;0.10;;;;;;;;;;4977404;28;20043;-85
2023/08/14 05:06:23;;;;;;;0.10;0.10;;;;;;;;;;4974929;28;20039;-85
2023/08/14 05:08:48;;;;;;;0.10;0.10;;;;;;;;;;4974256;28;20126;-86
2023/08/14 05:11:13;;;;;;;0.10;0.10;;;;;;;;;;4972985;28;20579;-85
2023/08/14 05:13:44;;;;;;;0.10;0.10;;;;;;;;;;4974088;28;20054;-86
2023/08/14 05:16:09;;;;;;;0.10;0.10;;;;;;;20.19;nan;100254.16;4974748;28;20027;-87
2023/08/14 05:18:34;;;;;;;0.10;0.10;;;;;;;;;;4973051;28;20039;-87
2023/08/14 05:20:59;;;;;;;0.10;0.10;;;;;;;;;;4975471;28;20093;-86
2023/08/14 05:23:25;;;;;;;0.10;0.10;;;;;;;20.56;nan;100271.13;4973827;28;20453;-86
2023/08/14 05:25:50;;;;;;;0.00;0.00;;;;;;;;;;4973471;28;20524;-85
2023/08/14 05:28:15;;;;;;;0.10;0.10;;;;;;;;;;4974150;28;20041;-86
2023/08/14 05:30:44;;;;;;;0.10;0.10;;;;;;;;;;4973215;28;20125;-86
2023/08/14 05:33:09;;;;;;;0.10;0.10;;;;;;;20.73;nan;100313.50;4988808;28;20062;-87
2023/08/14 05:35:34;;;;;;;0.10;0.10;;;;;;;20.73;nan;100351.94;4974055;28;20031;-86
2023/08/14 05:37:59;;;;;;;0.10;0.10;;;;;;;;;;4975536;28;20051;-86
2023/08/14 05:40:28;;;;;;;0.10;0.10;;;;;;;20.81;nan;100243.34;4977692;28;20134;-87
2023/08/14 05:43:06;;;;;;;0.10;0.10;;;;;;;;;;4978346;28;20253;-85
2023/08/14 05:45:33;;;;;;;0.10;0.10;;;;;;;21.05;nan;100203.97;4977884;28;20069;-87
2023/08/14 05:48:00;;;;;;;0.10;0.10;;;;;;;21.16;nan;100238.09;4981513;28;20035;-86
2023/08/14 05:50:26;;;;;;;0.00;0.00;;;;;;;21.32;nan;100247.41;4982644;28;20516;-86
2023/08/14 05:52:52;;;;;;;0.10;0.10;;;;;;;;;;4982437;28;20117;-86
2023/08/14 05:55:17;;;;;;;0.10;0.10;;;;;;;;;;4979776;28;20062;-87
2023/08/14 05:57:42;;;;;;;0.00;0.00;;;;;;;;;;4977557;28;20279;-86
2023/08/14 06:00:11;;;;;;;0.10;0.10;;;;;;;22.68;nan;100247.38;4976487;28;20138;-86
2023/08/14 06:02:36;;;;;;;0.00;0.00;;;;;;;;;;4976549;28;20053;-88
2023/08/14 06:05:02;;;;;;;0.10;0.10;;;;;;;23.46;nan;100303.63;4975638;28;20497;-86
2023/08/14 06:07:27;;;;;;;0.10;0.10;;;;;;;;;;4976207;28;20277;-86
2023/08/14 06:09:52;;;;;;;0.00;0.00;;;;;;;24.61;nan;100244.66;4975170;28;20031;-86
2023/08/14 06:12:18;;;;;;;0.00;0.00;;;;;;;;;;4974657;28;20091;-86
2023/08/14 06:14:43;;;;;;;0.00;0.00;;;;;;;25.72;nan;100254.19;4974723;28;20090;-86
2023/08/14 06:17:09;;;;;;;0.00;0.00;;;;;;;;;;4975921;28;20041;-86
2023/08/14 06:19:34;;;;;;;0.00;0.00;;;;;;;;;;4973826;28;20341;-84
2023/08/14 06:21:59;;;;;;;0.00;0.00;;;;;;;;;;4971833;28;20046;-86
2023/08/14 06:24:28;;;;;;;0.00;0.00;;;;;;;;;;4973442;28;20039;-86
2023/08/14 06:26:53;;;;;;;0.00;0.00;;;;;;;;;;4972658;28;20035;-84
2023/08/14 06:29:19;;;;;;;0.00;0.00;;;;;;;;;;4972223;28;20520;-86
2023/08/14 06:31:44;;;;;;;0.00;0.00;;;;;;;;;;4969711;28;20332;-86
2023/08/14 06:34:09;;;;;;;0.00;0.00;;;;;;;;;;4973265;28;20429;-86
2023/08/14 06:36:34;;;;;;;0.00;0.00;;;;;;;28.42;nan;100244.28;4971858;28;20114;-86
2023/08/14 06:38:59;;;;;;;0.00;0.00;;;;;;;;;;4973393;28;20034;-85
2023/08/14 06:41:25;;;;;;;0.00;0.00;;;;;;;;;;4972157;28;20097;-84
2023/08/14 06:43:50;;;;;;;0.00;0.00;;;;;;;;;;4972032;28;20070;-84
2023/08/14 06:46:15;;;;;;;0.00;0.00;;;;;;;;;;4971663;28;20401;-84
2023/08/14 06:48:40;;;;;;;0.00;0.00;;;;;;;28.81;nan;100322.50;4971520;28;20039;-85
2023/08/14 06:51:05;;;;;;;0.00;0.00;;;;;;;;;;4971804;28;20161;-85
2023/08/14 06:53:31;;;;;;;0.00;0.00;;;;;;;28.97;nan;100256.03;4971452;28;20291;-85
2023/08/14 06:55:57;;;;;;;0.00;0.00;;;;;;;;;;4973591;28;20536;-86
2023/08/14 06:58:22;;;;;;;0.00;0.00;;;;;;;;;;4972570;28;20444;-86
2023/08/14 07:00:48;;;;;;;0.00;0.00;;;;;;;29.92;nan;100296.81;4971849;28;20042;-85
2023/08/14 07:03:13;;;;;;;0.00;0.00;;;;;;;29.83;nan;100244.81;4973174;28;20034;-85
2023/08/14 07:05:38;;;;;;;0.00;0.00;;;;;;;;;;4973121;28;20039;-85
2023/08/14 07:08:04;;;;;;;0.00;0.00;;;;;;;;;;4971498;28;20039;-85
2023/08/14 07:10:29;;;;;;;0.00;0.00;;;;;;;;;;4971790;28;20045;-86
2023/08/14 07:12:54;;;;;;;0.00;0.00;;;;;;;;;;4971819;28;20023;-85
2023/08/14 07:15:19;;;;;;;0.00;0.00;;;;;;;29.77;nan;100246.78;4972551;28;20032;-85
2023/08/14 07:17:45;;;;;;;0.00;0.00;;;;;;;29.97;nan;100291.31;4972262;28;20480;-85
2023/08/14 07:20:11;;;;;;;0.00;0.00;;;;;;;30.39;nan;100257.91;4971962;28;20030;-85
2023/08/14 07:22:36;;;;;;;0.00;0.00;;;;;;;30.89;nan;100244.72;4972913;28;20266;-85
2023/08/14 07:25:01;;;;;;;0.00;0.00;;;;;;;;;;4971778;28;20114;-85
2023/08/14 07:27:27;;;;;;;0.00;0.00;;;;;;;;;;4971709;28;20282;-85
2023/08/14 07:29:52;;;;;;;0.00;0.00;;;;;;;32.08;nan;100262.78;4970012;28;20370;-85
2023/08/14 07:32:17;;;;;;;0.00;0.00;;;;;;;;;;4977891;28;20050;-85
2023/08/14 07:34:42;;;;;;;0.00;0.00;;;;;;;;;;4978749;28;20267;-85
2023/08/14 07:37:08;;;;;;;0.00;0.00;;;;;;;;;;4970931;28;20039;-85
2023/08/14 07:39:33;;;;;;;0.00;0.00;;;;;;;;;;4970218;28;20634;-85
2023/08/14 07:41:58;;;;;;;0.00;0.00;;;;;;;32.68;nan;100281.91;4972016;28;20051;-86
2023/08/14 07:44:23;;;;;;;0.00;0.00;;;;;;;32.82;nan;100284.59;4971812;28;20035;-85
2023/08/14 07:46:48;;;;;;;0.00;0.00;;;;;;;;;;4971675;28;20026;-85
2023/08/14 07:49:14;;;;;;;0.00;0.00;;;;;;;33.20;nan;100303.50;4972612;28;20275;-85
2023/08/14 07:51:39;;;;;;;0.00;0.00;;;;;;;;;;4965718;28;20042;-85
2023/08/14 07:54:04;;;;;;;0.00;0.00;;;;;;;33.20;nan;100303.50;4971889;28;20300;-84
2023/08/14 07:56:30;;;;;;;0.00;0.00;;;;;;;33.22;nan;100356.88;4971508;28;20046;-85
2023/08/14 07:58:55;;;;;;;0.00;0.00;;;;;;;33.28;nan;100278.13;4971075;28;20170;-86
2023/08/14 08:01:20;;;;;;;0.00;0.00;;;;;;;;;;4971433;28;20058;-85
2023/08/14 08:03:45;;;;;;;0.00;0.00;;;;;;;33.60;nan;100348.38;4971722;28;20274;-85
2023/08/14 08:06:11;;;;;;;0.00;0.00;;;;;;;33.62;nan;100309.69;4971708;28;20093;-85
2023/08/14 08:08:36;;;;;;;0.00;0.00;;;;;;;;;;4971903;28;20081;-85
2023/08/14 08:11:02;;;;;;;0.00;0.00;;;;;;;33.99;nan;100308.47;4969976;28;20294;-86
2023/08/14 08:13:27;;;;;;;0.00;0.00;;;;;;;34.46;nan;100273.16;4970317;28;20026;-86
2023/08/14 08:15:53;;;;;;;0.00;0.00;;;;;;;;;;4970456;28;20432;-86
2023/08/14 08:18:18;;;;;;;0.00;0.00;;;;;;;34.50;nan;100311.78;4969501;28;20034;-86
2023/08/14 08:20:43;;;;;;;0.00;0.00;;;;;;;34.75;nan;100312.22;4969450;28;20030;-85
2023/08/14 08:23:08;;;;;;;0.00;0.00;;;;;;;34.57;nan;100306.66;4970777;28;20038;-86
2023/08/14 08:25:34;;;;;;;0.00;0.00;;;;;;;34.58;nan;100324.72;4970603;28;20067;-86
2023/08/14 08:27:59;;;;;;;0.00;0.00;;;;;;;;;;4970716;28;20126;-85
2023/08/14 08:30:24;;;;;;;0.00;0.00;;;;;;;34.56;nan;100320.69;4970152;28;20815;-85
2023/08/14 08:32:49;;;;;;;0.00;0.00;;;;;;;35.24;nan;100301.97;4968350;28;20114;-85
2023/08/14 08:35:15;;;;;;;0.00;0.00;;;;;;;35.44;nan;100339.78;4970062;28;20135;-86
2023/08/14 08:37:41;;;;;;;0.00;0.00;;;;;;;;;;4970281;28;20066;-85
2023/08/14 08:40:08;;;;;;;0.00;0.00;;;;;;;35.76;nan;100301.16;4969622;28;20293;-85
2023/08/14 08:42:33;;;;;;;0.00;0.00;;;;;;;36.40;nan;100314.88;4971760;28;20118;-86
2023/08/14 08:45:03;;;;;;;0.00;0.00;;;;;;;36.14;nan;100392.88;4971563;28;20118;-85
2023/08/14 08:47:29;;;;;;;0.00;0.00;;;;;;;35.64;nan;100395.34;4968703;28;20045;-86
2023/08/14 08:49:55;;;;;;;0.00;0.00;;;;;;;35.33;nan;100401.75;4985521;28;20035;-86
2023/08/14 08:52:21;;;;;;;0.00;0.00;;;;;;;35.74;nan;100400.50;4968564;28;20632;-85
2023/08/14 08:54:48;;;;;;;0.00;0.00;;;;;;;35.91;nan;100392.22;4963125;28;20031;-86
2023/08/14 08:57:14;;;;;;;0.00;0.00;;;;;;;36.36;nan;100402.03;4969376;28;20147;-85
2023/08/14 08:59:40;;;;;;;0.00;0.00;;;;;;;36.91;nan;100401.19;4969423;28;20156;-86
2023/08/14 09:02:07;;;;;;;0.00;0.00;;;;;;;37.72;nan;100388.16;4970693;28;20042;-85
2023/08/14 09:04:33;;;;;;;0.00;0.00;;;;;;;38.19;nan;100387.09;4968994;28;20085;-85
2023/08/14 09:06:58;;;;;;;0.00;0.00;;;;;;;37.95;nan;100377.56;4969548;28;20035;-86
2023/08/14 09:09:23;;;;;;;0.00;0.00;;;;;;;37.88;nan;100377.31;4970396;28;20035;-86
2023/08/14 09:11:49;;;;;;;0.00;0.00;;;;;;;37.88;nan;100376.47;4970251;28;20275;-85
2023/08/14 09:14:17;;;;;;;0.00;0.00;;;;;;;37.60;nan;100379.84;4972574;28;20955;-85
2023/08/14 09:16:44;;;;;;;0.00;0.00;;;;;;;38.04;nan;100380.22;4974746;28;20058;-86
2023/08/14 09:19:13;;;;;;;0.00;0.00;;;;;;;37.59;nan;100381.78;4972735;28;20038;-86
2023/08/14 09:21:42;;;;;;;0.00;0.00;;;;;;;37.10;nan;100377.91;4973511;28;20038;-86
2023/08/14 09:24:10;;;;;;;0.00;0.00;;;;;;;37.67;nan;100388.38;4973966;28;20515;-85
2023/08/14 09:26:35;;;;;;;0.00;0.00;;;;;;;38.40;nan;100384.22;4967339;28;20405;-86
2023/08/14 09:29:00;;;;;;;0.00;0.00;;;;;;;38.76;nan;100383.47;4972777;28;20487;-87
2023/08/14 09:31:29;;;;;;;;;;;;;;;39.04;nan;100377.25;4971377;28;20031;-86
2023/08/14 09:33:55;;;;;;;0.00;0.00;;;;;;;39.30;nan;100385.13;4974509;28;19921;-86
2023/08/14 09:36:20;;;;;;;0.00;0.00;;;;;;;39.38;nan;100386.19;4972551;28;20034;-85
2023/08/14 09:38:45;;;;;;;0.00;0.00;;;;;;;39.23;nan;100384.94;4971826;28;20447;-86
2023/08/14 09:41:10;;;;;;;0.00;0.00;;;;;;;39.49;nan;100379.81;4971001;28;20039;-85
2023/08/14 09:43:36;;;;;;;0.00;0.00;;;;;;;39.78;nan;100369.53;4972687;28;20034;-85
2023/08/14 09:46:02;;;;;;;0.00;0.00;;;;;;;39.22;nan;100372.25;4973255;28;20412;-86
2023/08/14 09:48:45;;;;;;;0.00;0.00;;;;;;;38.42;nan;100381.91;4971680;28;20035;-86
2023/08/14 09:51:15;;;;;;;0.00;0.00;;;;;;;37.64;nan;100382.72;4972493;28;20121;-86
2023/08/14 09:53:54;;;;;;;0.00;0.00;;;;;;;36.80;nan;100377.88;4971816;28;20086;-85
2023/08/14 09:56:20;;;;;;;0.00;0.00;;;;;;;36.39;nan;100368.31;4972643;28;20086;-85
2023/08/14 09:58:46;;;;;;;0.00;0.00;;;;;;;36.37;nan;100381.59;4974084;28;20035;-85
2023/08/14 10:01:15;;;;;;;0.00;0.00;;;;;;;36.60;nan;100379.44;4973231;28;20038;-86
2023/08/14 10:03:42;;;;;;;0.00;0.00;;;;;;;36.83;nan;100379.16;4973903;28;20071;-85
2023/08/14 10:06:12;;;;;;;0.00;0.00;;;;;;;36.69;nan;100382.19;4975034;28;20030;-86
2023/08/14 10:08:42;;;;;;;0.00;0.00;;;;;;;36.53;nan;100382.69;4975965;28;20761;-86
2023/08/14 10:11:11;;;;;;;0.00;0.00;;;;;;;36.11;nan;100385.28;4975829;28;20035;-85
2023/08/14 10:13:45;;;;;;;0.00;0.00;;;;;;;35.40;nan;100377.34;4976461;28;20030;-86
2023/08/14 10:16:16;;;;;;;0.00;0.00;;;;;;;35.11;nan;100386.16;4973090;28;20451;-85
2023/08/14 10:18:41;;;;;;;;;;;;;;;35.74;nan;100375.75;4973568;28;20397;-86
2023/08/14 10:21:11;;;;;;;0.00;0.00;;;;;;;36.36;nan;100380.81;4973969;28;20013;-86
2023/08/14 10:23:37;;;;;;;0.00;0.00;;;;;;;36.70;nan;100379.06;4971723;28;20414;-86
2023/08/14 10:26:03;;;;;;;0.00;0.00;;;;;;;37.09;nan;100377.13;4972899;28;20033;-86
2023/08/14 10:28:30;;;;;;;0.00;0.00;;;;;;;37.39;nan;100377.84;4972608;28;20034;-87
2023/08/14 10:30:56;;;;;;;0.00;0.00;;;;;;;37.35;nan;100370.59;4972113;28;20077;-86
2023/08/14 10:33:21;;;;;;;0.00;0.00;;;;;;;37.09;nan;100379.03;4984386;28;20026;-86
2023/08/14 10:35:55;;;;;;;0.00;0.00;;;;;;;37.00;nan;100387.34;4972150;28;20035;-85
2023/08/14 10:38:24;;;;;;;0.00;0.00;;;;;;;37.08;nan;100383.75;4971793;28;20340;-85
2023/08/14 10:40:52;;;;;;;0.00;0.00;;;;;;;37.17;nan;100380.94;4972212;28;20054;-86
2023/08/14 10:43:17;;;;;;;0.00;0.00;;;;;;;37.73;nan;100388.97;4971970;28;20022;-85
2023/08/14 10:45:43;;;;;;;0.00;0.00;;;;;;;38.65;nan;100383.13;4972359;28;20245;-86
2023/08/14 10:48:09;;;;;;;0.00;0.00;;;;;;;38.25;nan;100385.69;4970816;28;20549;-86
2023/08/14 10:50:37;;;;;;;0.00;0.00;;;;;;;38.13;nan;100391.19;4971748;28;20046;-85
2023/08/14 10:53:04;;;;;;;0.00;0.00;;;;;;;38.03;nan;100384.97;4973189;28;20026;-86
2023/08/14 10:55:36;;;;;;;0.00;0.00;;;;;;;38.62;nan;100394.06;4973249;28;20551;-86
2023/08/14 10:58:36;;;;;;;0.00;0.00;;;;;;;38.78;nan;100397.75;4971805;28;20587;-86
2023/08/14 11:01:04;;;;;;;0.00;0.00;;;;;;;39.08;nan;100398.31;4971493;28;20526;-85
2023/08/14 11:03:32;;;;;;;0.00;0.00;;;;;;;40.23;nan;100404.38;4971319;28;20055;-85
2023/08/14 11:05:58;;;;;;;0.00;0.00;;;;;;;41.00;nan;100411.50;4972369;28;20405;-85
2023/08/14 11:08:23;;;;;;;;;;;;;;;41.62;nan;100408.91;4971846;28;20039;-87
2023/08/14 11:10:49;;;;;;;0.00;0.00;;;;;;;40.89;nan;100422.31;4971598;28;19925;-85
2023/08/14 11:13:15;;;;;;;0.00;0.00;;;;;;;40.34;nan;100422.13;4971289;28;20408;-87
2023/08/14 11:15:41;;;;;;;0.00;0.00;;;;;;;40.01;nan;100421.59;4971410;28;20822;-85
2023/08/14 11:18:11;;;;;;;0.00;0.00;;;;;;;40.02;nan;100414.91;4970751;28;20400;-85
2023/08/14 11:20:37;;;;;;;;;;;;;;;40.62;nan;100401.03;4971979;28;20042;-85
2023/08/14 11:23:02;;;;;;;;;;;;;;;41.36;nan;100407.56;4971773;28;20538;-86
2023/08/14 11:25:28;;;;;;;;;;;;;;;41.85;nan;100408.16;4971773;28;20281;-86
2023/08/14 11:27:54;;;;;;;;;;;;;;;41.69;nan;100408.22;4972795;28;19953;-86
2023/08/14 11:30:22;;;;;;;0.00;0.00;;;;;;;42.07;nan;100399.06;4969866;28;19944;-87
2023/08/14 11:32:48;;;;;;;0.00;0.00;;;;;;;42.34;nan;100399.16;4981682;28;20034;-86
2023/08/14 11:35:15;;;;;;;0.00;0.00;;;;;;;43.00;nan;100397.03;4972517;28;20027;-86
2023/08/14 11:37:41;;;;;;;0.00;0.00;;;;;;;42.68;nan;100402.13;4972514;28;20031;-86
2023/08/14 11:40:12;;;;;;;0.00;0.00;;;;;;;42.66;nan;100385.78;4971662;28;20113;-85
2023/08/14 11:42:39;;;;;;;0.00;0.00;;;;;;;42.14;nan;100392.84;4971040;28;20404;-86
2023/08/14 11:45:06;;;;;;;0.00;0.00;;;;;;;42.04;nan;100390.69;4971724;28;20031;-86
2023/08/14 11:47:33;;;;;;;0.00;0.00;;;;;;;42.31;nan;100392.38;4970995;28;20042;-85
2023/08/14 11:49:59;;;;;;;0.00;0.00;;;;;;;42.74;nan;100375.56;4970792;28;20038;-86
2023/08/14 11:52:26;;;;;;;0.00;0.00;;;;;;;43.67;nan;100377.69;4970988;28;20031;-86
2023/08/14 11:54:51;;;;;;;0.00;0.00;;;;;;;44.27;nan;100367.53;4971860;28;20232;-86
2023/08/14 11:57:17;;;;;;;0.00;0.00;;;;;;;44.14;nan;100363.44;4969906;28;20109;-86
2023/08/14 11:59:44;;;;;;;0.00;0.00;;;;;;;44.19;nan;100357.50;4970466;28;20035;-86
2023/08/14 12:02:13;;;;;;;0.00;0.00;;;;;;;44.41;nan;100353.75;4970230;28;20038;-86
2023/08/14 12:04:41;;;;;;;0.00;0.00;;;;;;;44.57;nan;100349.84;4969110;28;20051;-85
2023/08/14 12:07:07;;;;;;;0.00;0.00;;;;;;;44.02;nan;100343.03;4970486;28;20042;-86
2023/08/14 12:09:33;;;;;;;0.00;0.00;;;;;;;43.01;nan;100345.81;4971829;28;20360;-88
2023/08/14 12:11:59;;;;;;;0.00;0.00;;;;;;;42.21;nan;100340.97;4969411;28;20046;-86
2023/08/14 12:14:24;;;;;;;0.00;0.00;;;;;;;41.43;nan;100342.25;4971156;28;20030;-85
2023/08/14 12:16:49;;;;;;;0.00;0.00;;;;;;;41.00;nan;100341.31;4970652;28;20027;-85
2023/08/14 12:19:14;;;;;;;0.00;0.00;;;;;;;40.54;nan;100348.19;4970196;28;20114;-85
2023/08/14 12:21:40;;;;;;;0.00;0.00;;;;;;;40.21;nan;100328.34;4971255;28;20038;-86
2023/08/14 12:24:05;;;;;;;0.00;0.00;;;;;;;39.75;nan;100327.94;4970867;28;20278;-85
2023/08/14 12:26:42;;;;;;;0.00;0.00;;;;;;;39.19;nan;100335.06;4970115;28;20842;-86
2023/08/14 12:29:07;;;;;;;0.00;0.00;;;;;;;38.78;nan;100342.47;4970834;28;20444;-85
2023/08/14 12:31:33;;;;;;;0.00;0.00;;;;;;;38.59;nan;100343.06;4965602;28;20028;-86
2023/08/14 12:33:58;;;;;;;0.00;0.00;;;;;;;38.24;nan;100356.47;4971161;28;20122;-85